sensor_id;sensor_type;location;lat;lon;timestamp;pressure;altitude;pressure_sealevel;temperature;humidity
48404;BME280;34202;52.536;6.042;2023-02-10T00:04:27;103579.70;;;0.46;99.50
48404;BME280;34202;52.536;6.042;2023-02-10T00:09:27;103577.90;;;0.44;99.58
48404;BME280;34202;52.536;6.042;2023-02-10T00:14:29;103577.08;;;0.40;99.63
48404;BME280;34202;52.536;6.042;2023-02-10T00:19:30;103585.71;;;0.37;99.56
48404;BME280;34202;52.536;6.042;2023-02-10T00:24:31;103591.45;;;0.34;99.78
48404;BME280;34202;52.536;6.042;2023-02-10T00:29:31;103590.59;;;0.31;99.78
48404;BME280;34202;52.536;6.042;2023-02-10T00:34:32;103585.64;;;0.25;99.96
48404;BME280;34202;52.536;6.042;2023-02-10T00:39:32;103583.84;;;0.23;100.00
48404;BME280;34202;52.536;6.042;2023-02-10T00:44:32;103580.86;;;0.20;100.00
48404;BME280;34202;52.536;6.042;2023-02-10T00:49:32;103584.56;;;0.17;100.00
48404;BME280;34202;52.536;6.042;2023-02-10T00:54:33;103588.21;;;0.14;100.00
48404;BME280;34202;52.536;6.042;2023-02-10T00:59:33;103593.40;;;0.11;100.00
48404;BME280;34202;52.536;6.042;2023-02-10T01:04:34;103597.23;;;0.10;100.00
48404;BME280;34202;52.536;6.042;2023-02-10T01:09:35;103597.58;;;0.10;100.00
48404;BME280;34202;52.536;6.042;2023-02-10T01:14:35;103600.80;;;0.10;100.00
48404;BME280;34202;52.536;6.042;2023-02-10T01:19:35;103598.05;;;0.09;100.00
48404;BME280;34202;52.536;6.042;2023-02-10T01:24:36;103601.47;;;0.09;100.00
48404;BME280;34202;52.536;6.042;2023-02-10T01:29:36;103600.17;;;0.09;100.00
48404;BME280;34202;52.536;6.042;2023-02-10T01:34:36;103604.13;;;0.09;100.00
48404;BME280;34202;52.536;6.042;2023-02-10T01:39:37;103610.42;;;0.08;100.00
48404;BME280;34202;52.536;6.042;2023-02-10T01:49:45;103618.40;;;0.09;100.00
48404;BME280;34202;52.536;6.042;2023-02-10T01:54:51;103617.13;;;0.10;100.00
48404;BME280;34202;52.536;6.042;2023-02-10T01:59:52;103618.33;;;0.10;100.00
48404;BME280;34202;52.536;6.042;2023-02-10T02:04:58;103622.20;;;0.11;100.00
48404;BME280;34202;52.536;6.042;2023-02-10T02:09:59;103619.20;;;0.12;100.00
48404;BME280;34202;52.536;6.042;2023-02-10T02:15:10;103621.45;;;0.13;100.00
48404;BME280;34202;52.536;6.042;2023-02-10T02:25:57;103613.20;;;0.10;100.00
48404;BME280;34202;52.536;6.042;2023-02-10T02:36:48;103616.89;;;0.10;100.00
48404;BME280;34202;52.536;6.042;2023-02-10T02:47:17;103613.59;;;0.07;100.00
48404;BME280;34202;52.536;6.042;2023-02-10T02:52:26;103615.61;;;0.05;100.00
48404;BME280;34202;52.536;6.042;2023-02-10T02:57:55;103617.75;;;0.04;100.00
48404;BME280;34202;52.536;6.042;2023-02-10T03:02:58;103619.75;;;0.04;100.00
48404;BME280;34202;52.536;6.042;2023-02-10T03:07:59;103614.77;;;0.02;100.00
48404;BME280;34202;52.536;6.042;2023-02-10T03:13:00;103609.80;;;-0.00;100.00
48404;BME280;34202;52.536;6.042;2023-02-10T03:18:00;103611.88;;;-0.02;100.00
48404;BME280;34202;52.536;6.042;2023-02-10T03:23:00;103612.42;;;-0.04;100.00
48404;BME280;34202;52.536;6.042;2023-02-10T03:28:00;103618.16;;;-0.05;100.00
48404;BME280;34202;52.536;6.042;2023-02-10T03:33:01;103614.66;;;-0.05;100.00
48404;BME280;34202;52.536;6.042;2023-02-10T03:38:01;103613.33;;;-0.07;100.00
48404;BME280;34202;52.536;6.042;2023-02-10T03:43:02;103616.15;;;-0.07;100.00
48404;BME280;34202;52.536;6.042;2023-02-10T03:48:02;103619.83;;;-0.08;100.00
48404;BME280;34202;52.536;6.042;2023-02-10T03:53:03;103628.04;;;-0.10;100.00
48404;BME280;34202;52.536;6.042;2023-02-10T03:58:04;103631.09;;;-0.12;100.00
48404;BME280;34202;52.536;6.042;2023-02-10T04:03:04;103624.90;;;-0.15;100.00
48404;BME280;34202;52.536;6.042;2023-02-10T04:08:05;103625.70;;;-0.17;100.00
48404;BME280;34202;52.536;6.042;2023-02-10T04:13:06;103629.52;;;-0.18;100.00
48404;BME280;34202;52.536;6.042;2023-02-10T04:18:06;103627.71;;;-0.21;100.00
48404;BME280;34202;52.536;6.042;2023-02-10T04:23:07;103627.22;;;-0.23;100.00
48404;BME280;34202;52.536;6.042;2023-02-10T04:28:07;103633.96;;;-0.24;100.00
48404;BME280;34202;52.536;6.042;2023-02-10T04:33:07;103641.91;;;-0.25;100.00
48404;BME280;34202;52.536;6.042;2023-02-10T04:38:08;103649.41;;;-0.25;100.00
48404;BME280;34202;52.536;6.042;2023-02-10T04:43:09;103644.78;;;-0.25;100.00
48404;BME280;34202;52.536;6.042;2023-02-10T04:48:10;103643.19;;;-0.26;100.00
48404;BME280;34202;52.536;6.042;2023-02-10T04:53:10;103637.42;;;-0.27;100.00
48404;BME280;34202;52.536;6.042;2023-02-10T04:58:11;103642.17;;;-0.28;100.00
48404;BME280;34202;52.536;6.042;2023-02-10T05:03:11;103643.65;;;-0.28;100.00
48404;BME280;34202;52.536;6.042;2023-02-10T05:08:11;103642.27;;;-0.28;100.00
48404;BME280;34202;52.536;6.042;2023-02-10T05:13:12;103643.65;;;-0.28;100.00
48404;BME280;34202;52.536;6.042;2023-02-10T05:18:13;103640.77;;;-0.30;100.00
48404;BME280;34202;52.536;6.042;2023-02-10T05:23:13;103635.04;;;-0.30;100.00
48404;BME280;34202;52.536;6.042;2023-02-10T05:28:13;103635.42;;;-0.30;100.00
48404;BME280;34202;52.536;6.042;2023-02-10T05:33:14;103635.41;;;-0.30;100.00
48404;BME280;34202;52.536;6.042;2023-02-10T05:38:15;103637.55;;;-0.29;100.00
48404;BME280;34202;52.536;6.042;2023-02-10T05:43:15;103642.59;;;-0.30;100.00
48404;BME280;34202;52.536;6.042;2023-02-10T05:48:15;103642.80;;;-0.30;100.00
48404;BME280;34202;52.536;6.042;2023-02-10T05:53:16;103646.80;;;-0.29;100.00
48404;BME280;34202;52.536;6.042;2023-02-10T05:58:16;103644.55;;;-0.28;100.00
48404;BME280;34202;52.536;6.042;2023-02-10T06:03:16;103644.06;;;-0.26;100.00
48404;BME280;34202;52.536;6.042;2023-02-10T06:08:17;103637.70;;;-0.22;100.00
48404;BME280;34202;52.536;6.042;2023-02-10T06:13:17;103632.38;;;-0.19;100.00
48404;BME280;34202;52.536;6.042;2023-02-10T06:18:17;103638.55;;;-0.15;100.00
48404;BME280;34202;52.536;6.042;2023-02-10T06:23:18;103645.62;;;-0.13;100.00
48404;BME280;34202;52.536;6.042;2023-02-10T06:28:23;103649.66;;;-0.10;100.00
48404;BME280;34202;52.536;6.042;2023-02-10T06:33:23;103651.24;;;-0.07;100.00
48404;BME280;34202;52.536;6.042;2023-02-10T06:38:24;103654.33;;;-0.04;100.00
48404;BME280;34202;52.536;6.042;2023-02-10T06:43:24;103661.77;;;0.01;100.00
48404;BME280;34202;52.536;6.042;2023-02-10T06:48:24;103663.71;;;0.05;100.00
48404;BME280;34202;52.536;6.042;2023-02-10T06:53:26;103661.42;;;0.10;100.00
48404;BME280;34202;52.536;6.042;2023-02-10T06:58:26;103659.59;;;0.14;100.00
48404;BME280;34202;52.536;6.042;2023-02-10T07:03:27;103658.48;;;0.16;100.00
48404;BME280;34202;52.536;6.042;2023-02-10T07:08:27;103661.77;;;0.18;100.00
48404;BME280;34202;52.536;6.042;2023-02-10T07:13:28;103660.95;;;0.21;100.00
48404;BME280;34202;52.536;6.042;2023-02-10T07:18:28;103663.81;;;0.23;100.00
48404;BME280;34202;52.536;6.042;2023-02-10T07:23:30;103667.35;;;0.24;100.00
48404;BME280;34202;52.536;6.042;2023-02-10T07:28:30;103679.20;;;0.28;100.00
48404;BME280;34202;52.536;6.042;2023-02-10T07:33:30;103682.47;;;0.29;100.00
48404;BME280;34202;52.536;6.042;2023-02-10T07:38:31;103692.32;;;0.32;100.00
48404;BME280;34202;52.536;6.042;2023-02-10T07:43:32;103700.41;;;0.34;100.00
48404;BME280;34202;52.536;6.042;2023-02-10T07:48:33;103686.55;;;0.38;100.00
48404;BME280;34202;52.536;6.042;2023-02-10T07:53:33;103693.17;;;0.41;100.00
48404;BME280;34202;52.536;6.042;2023-02-10T07:58:35;103706.94;;;0.44;100.00
48404;BME280;34202;52.536;6.042;2023-02-10T08:03:36;103702.92;;;0.47;100.00
48404;BME280;34202;52.536;6.042;2023-02-10T08:08:36;103700.33;;;0.50;100.00
48404;BME280;34202;52.536;6.042;2023-02-10T08:13:37;103697.45;;;0.52;100.00
48404;BME280;34202;52.536;6.042;2023-02-10T08:18:38;103702.44;;;0.56;100.00
48404;BME280;34202;52.536;6.042;2023-02-10T08:23:38;103698.37;;;0.61;100.00
48404;BME280;34202;52.536;6.042;2023-02-10T08:28:39;103689.20;;;0.65;100.00
48404;BME280;34202;52.536;6.042;2023-02-10T08:33:40;103688.14;;;0.72;100.00
48404;BME280;34202;52.536;6.042;2023-02-10T08:38:42;103694.44;;;0.79;100.00
48404;BME280;34202;52.536;6.042;2023-02-10T08:43:43;103698.70;;;0.88;100.00
48404;BME280;34202;52.536;6.042;2023-02-10T08:48:43;103699.67;;;0.99;100.00
48404;BME280;34202;52.536;6.042;2023-02-10T08:53:44;103699.19;;;1.10;100.00
48404;BME280;34202;52.536;6.042;2023-02-10T08:58:45;103694.87;;;1.25;100.00
48404;BME280;34202;52.536;6.042;2023-02-10T09:03:46;103701.13;;;1.40;100.00
48404;BME280;34202;52.536;6.042;2023-02-10T09:08:47;103694.41;;;1.49;100.00
48404;BME280;34202;52.536;6.042;2023-02-10T09:13:48;103695.20;;;1.56;100.00
48404;BME280;34202;52.536;6.042;2023-02-10T09:18:49;103694.27;;;1.61;100.00
48404;BME280;34202;52.536;6.042;2023-02-10T09:23:49;103698.38;;;1.68;100.00
48404;BME280;34202;52.536;6.042;2023-02-10T09:28:50;103698.35;;;1.80;100.00
48404;BME280;34202;52.536;6.042;2023-02-10T09:33:50;103697.95;;;1.95;100.00
48404;BME280;34202;52.536;6.042;2023-02-10T09:38:50;103690.80;;;2.10;100.00
48404;BME280;34202;52.536;6.042;2023-02-10T09:54:54;103698.83;;;2.63;100.00
48404;BME280;34202;52.536;6.042;2023-02-10T09:59:55;103701.34;;;2.81;100.00
48404;BME280;34202;52.536;6.042;2023-02-10T10:04:59;103705.67;;;2.98;100.00
48404;BME280;34202;52.536;6.042;2023-02-10T10:10:12;103711.05;;;3.13;100.00
48404;BME280;34202;52.536;6.042;2023-02-10T10:15:16;103705.61;;;3.28;100.00
48404;BME280;34202;52.536;6.042;2023-02-10T10:30:47;103693.15;;;3.72;100.00
48404;BME280;34202;52.536;6.042;2023-02-10T10:35:49;103700.12;;;3.86;100.00
48404;BME280;34202;52.536;6.042;2023-02-10T10:40:55;103702.42;;;4.00;100.00
48404;BME280;34202;52.536;6.042;2023-02-10T10:46:09;103709.34;;;4.15;100.00
48404;BME280;34202;52.536;6.042;2023-02-10T10:51:11;103706.48;;;4.32;100.00
48404;BME280;34202;52.536;6.042;2023-02-10T10:56:17;103703.88;;;4.47;100.00
48404;BME280;34202;52.536;6.042;2023-02-10T11:01:31;103700.22;;;4.64;100.00
48404;BME280;34202;52.536;6.042;2023-02-10T11:06:35;103701.55;;;4.82;100.00
48404;BME280;34202;52.536;6.042;2023-02-10T11:11:41;103698.14;;;5.01;100.00
48404;BME280;34202;52.536;6.042;2023-02-10T11:16:53;103688.30;;;5.19;100.00
48404;BME280;34202;52.536;6.042;2023-02-10T11:21:57;103694.77;;;5.37;100.00
48404;BME280;34202;52.536;6.042;2023-02-10T11:27:02;103688.64;;;5.52;100.00
48404;BME280;34202;52.536;6.042;2023-02-10T11:32:02;103672.66;;;5.70;100.00
48404;BME280;34202;52.536;6.042;2023-02-10T11:37:12;103667.80;;;5.84;100.00
48404;BME280;34202;52.536;6.042;2023-02-10T11:47:21;103667.87;;;6.07;100.00
48404;BME280;34202;52.536;6.042;2023-02-10T11:52:24;103671.63;;;6.19;100.00
48404;BME280;34202;52.536;6.042;2023-02-10T12:13:46;103676.48;;;6.62;100.00
48404;BME280;34202;52.536;6.042;2023-02-10T12:19:01;103673.17;;;6.69;100.00
48404;BME280;34202;52.536;6.042;2023-02-10T12:34:52;103641.56;;;6.88;100.00
48404;BME280;34202;52.536;6.042;2023-02-10T12:40:06;103645.88;;;6.93;100.00
48404;BME280;34202;52.536;6.042;2023-02-10T12:45:17;103639.45;;;6.98;100.00
48404;BME280;34202;52.536;6.042;2023-02-10T12:50:23;103629.45;;;7.01;100.00
48404;BME280;34202;52.536;6.042;2023-02-10T14:55:56;103519.19;;;6.72;93.63
48404;BME280;34202;52.536;6.042;2023-02-10T15:12:06;103515.78;;;6.63;93.49
48404;BME280;34202;52.536;6.042;2023-02-10T15:17:15;103513.34;;;6.62;93.15
48404;BME280;34202;52.536;6.042;2023-02-10T15:22:38;103509.21;;;6.60;92.93
48404;BME280;34202;52.536;6.042;2023-02-10T15:27:39;103499.55;;;6.58;93.10
48404;BME280;34202;52.536;6.042;2023-02-10T15:32:47;103493.50;;;6.55;93.18
48404;BME280;34202;52.536;6.042;2023-02-10T15:37:51;103486.84;;;6.51;93.42
48404;BME280;34202;52.536;6.042;2023-02-10T19:14:14;103447.12;;;5.62;100.00
48404;BME280;34202;52.536;6.042;2023-02-10T19:19:15;103458.56;;;5.60;100.00
48404;BME280;34202;52.536;6.042;2023-02-10T19:24:15;103451.10;;;5.59;100.00
48404;BME280;34202;52.536;6.042;2023-02-10T19:29:16;103446.05;;;5.59;100.00
48404;BME280;34202;52.536;6.042;2023-02-10T19:34:16;103447.75;;;5.59;100.00
48404;BME280;34202;52.536;6.042;2023-02-10T19:39:17;103437.52;;;5.60;100.00
48404;BME280;34202;52.536;6.042;2023-02-10T19:44:20;103432.57;;;5.62;100.00
48404;BME280;34202;52.536;6.042;2023-02-10T19:49:21;103424.04;;;5.63;100.00
48404;BME280;34202;52.536;6.042;2023-02-10T19:54:22;103431.31;;;5.64;100.00
48404;BME280;34202;52.536;6.042;2023-02-10T19:59:22;103437.23;;;5.64;100.00
48404;BME280;34202;52.536;6.042;2023-02-10T20:04:23;103439.82;;;5.64;100.00
48404;BME280;34202;52.536;6.042;2023-02-10T20:09:23;103445.95;;;5.65;100.00
48404;BME280;34202;52.536;6.042;2023-02-10T20:14:23;103452.66;;;5.65;100.00
48404;BME280;34202;52.536;6.042;2023-02-10T20:19:24;103457.33;;;5.65;100.00
48404;BME280;34202;52.536;6.042;2023-02-10T20:24:25;103453.28;;;5.67;100.00
48404;BME280;34202;52.536;6.042;2023-02-10T20:29:25;103450.02;;;5.67;100.00
48404;BME280;34202;52.536;6.042;2023-02-10T20:34:25;103448.11;;;5.67;100.00
48404;BME280;34202;52.536;6.042;2023-02-10T20:39:26;103442.96;;;5.67;100.00
48404;BME280;34202;52.536;6.042;2023-02-10T20:44:26;103442.16;;;5.68;100.00
48404;BME280;34202;52.536;6.042;2023-02-10T20:49:27;103446.55;;;5.69;100.00
48404;BME280;34202;52.536;6.042;2023-02-10T20:54:27;103446.10;;;5.70;100.00
48404;BME280;34202;52.536;6.042;2023-02-10T20:59:28;103447.04;;;5.71;100.00
48404;BME280;34202;52.536;6.042;2023-02-10T21:04:28;103445.61;;;5.73;100.00
48404;BME280;34202;52.536;6.042;2023-02-10T21:09:29;103439.54;;;5.75;100.00
48404;BME280;34202;52.536;6.042;2023-02-10T21:14:31;103441.23;;;5.77;100.00
48404;BME280;34202;52.536;6.042;2023-02-10T21:19:32;103444.55;;;5.80;100.00
48404;BME280;34202;52.536;6.042;2023-02-10T21:24:32;103442.27;;;5.82;100.00
48404;BME280;34202;52.536;6.042;2023-02-10T21:29:34;103440.70;;;5.85;100.00
48404;BME280;34202;52.536;6.042;2023-02-10T21:34:35;103432.00;;;5.86;100.00
48404;BME280;34202;52.536;6.042;2023-02-10T21:39:35;103431.55;;;5.87;100.00
48404;BME280;34202;52.536;6.042;2023-02-10T21:44:35;103427.40;;;5.87;100.00
48404;BME280;34202;52.536;6.042;2023-02-10T21:49:37;103426.02;;;5.88;100.00
48404;BME280;34202;52.536;6.042;2023-02-10T21:54:38;103417.12;;;5.89;100.00
48404;BME280;34202;52.536;6.042;2023-02-10T21:59:39;103417.50;;;5.89;100.00
48404;BME280;34202;52.536;6.042;2023-02-10T22:04:39;103416.74;;;5.91;100.00
48404;BME280;34202;52.536;6.042;2023-02-10T22:09:40;103409.99;;;5.93;100.00
48404;BME280;34202;52.536;6.042;2023-02-10T22:14:40;103418.67;;;5.94;100.00
48404;BME280;34202;52.536;6.042;2023-02-10T22:19:40;103428.98;;;5.95;100.00
48404;BME280;34202;52.536;6.042;2023-02-10T22:24:41;103419.06;;;5.96;100.00
48404;BME280;34202;52.536;6.042;2023-02-10T22:29:41;103414.98;;;5.97;100.00
48404;BME280;34202;52.536;6.042;2023-02-10T22:34:44;103410.91;;;5.99;100.00
48404;BME280;34202;52.536;6.042;2023-02-10T22:39:45;103408.90;;;6.00;100.00
48404;BME280;34202;52.536;6.042;2023-02-10T22:44:45;103408.40;;;6.00;100.00
48404;BME280;34202;52.536;6.042;2023-02-10T22:49:49;103393.72;;;6.00;100.00
48404;BME280;34202;52.536;6.042;2023-02-10T22:54:50;103380.55;;;6.00;100.00
48404;BME280;34202;52.536;6.042;2023-02-10T22:59:52;103372.43;;;6.00;100.00
48404;BME280;34202;52.536;6.042;2023-02-10T23:04:52;103369.90;;;6.01;100.00
48404;BME280;34202;52.536;6.042;2023-02-10T23:09:53;103362.17;;;6.02;100.00
48404;BME280;34202;52.536;6.042;2023-02-10T23:14:53;103356.79;;;6.01;100.00
48404;BME280;34202;52.536;6.042;2023-02-10T23:19:53;103358.21;;;6.02;100.00
48404;BME280;34202;52.536;6.042;2023-02-10T23:24:54;103353.88;;;6.02;100.00
48404;BME280;34202;52.536;6.042;2023-02-10T23:29:56;103354.64;;;6.03;100.00
48404;BME280;34202;52.536;6.042;2023-02-10T23:34:56;103349.63;;;6.03;100.00
48404;BME280;34202;52.536;6.042;2023-02-10T23:39:57;103353.80;;;6.03;100.00
48404;BME280;34202;52.536;6.042;2023-02-10T23:44:57;103358.36;;;6.04;100.00
48404;BME280;34202;52.536;6.042;2023-02-10T23:49:57;103356.49;;;6.05;100.00
48404;BME280;34202;52.536;6.042;2023-02-10T23:54:58;103357.63;;;6.06;100.00
48404;BME280;34202;52.536;6.042;2023-02-10T23:59:58;103353.68;;;6.07;100.00
